createdAt,value
2023-04-16T00:01:03.089Z,5.57
2023-04-16T00:03:31.633Z,5.44
2023-04-16T00:05:59.761Z,5.68
2023-04-16T00:08:27.677Z,5.46
2023-04-16T00:10:55.956Z,5.41
2023-04-16T00:13:24.020Z,5.21
2023-04-16T00:15:51.900Z,5.01
2023-04-16T00:18:21.399Z,5.07
2023-04-16T00:20:49.523Z,5.30
2023-04-16T00:23:17.701Z,5.09
2023-04-16T00:25:45.999Z,5.34
2023-04-16T00:28:13.917Z,5.21
2023-04-16T00:30:41.922Z,5.15
2023-04-16T00:33:10.261Z,5.49
2023-04-16T00:35:38.207Z,5.31
2023-04-16T00:38:06.316Z,5.36
2023-04-16T00:40:34.615Z,4.97
2023-04-16T00:43:02.576Z,4.73
2023-04-16T00:45:30.590Z,5.02
2023-04-16T00:48:00.563Z,4.77
2023-04-16T00:50:29.056Z,4.84
2023-04-16T00:52:57.237Z,5.16
2023-04-16T00:55:25.601Z,5.16
2023-04-16T00:57:54.069Z,5.00
2023-04-16T01:00:22.270Z,5.10
2023-04-16T01:02:50.736Z,5.21
2023-04-16T01:05:20.660Z,4.92
2023-04-16T01:07:48.679Z,4.94
2023-04-16T01:10:17.020Z,4.99
2023-04-16T01:12:45.235Z,5.25
2023-04-16T01:15:13.223Z,5.85
2023-04-16T01:17:42.204Z,5.35
2023-04-16T01:20:10.716Z,5.01
2023-04-16T01:22:38.924Z,5.74
2023-04-16T01:25:07.376Z,5.45
2023-04-16T01:27:35.714Z,5.59
2023-04-16T01:30:04.368Z,5.83
2023-04-16T01:32:34.025Z,5.79
2023-04-16T01:35:02.369Z,5.57
2023-04-16T01:37:31.205Z,5.77
2023-04-16T01:39:59.823Z,5.44
2023-04-16T01:42:28.442Z,5.55
2023-04-16T01:44:56.401Z,5.72
2023-04-16T01:47:24.818Z,5.54
2023-04-16T01:49:52.889Z,5.43
2023-04-16T01:52:21.359Z,5.82
2023-04-16T01:54:49.621Z,5.84
2023-04-16T01:57:17.534Z,5.57
2023-04-16T01:59:45.592Z,5.13
2023-04-16T02:02:16.525Z,5.77
2023-04-16T02:04:46.148Z,5.70
2023-04-16T02:07:14.105Z,5.75
2023-04-16T02:09:42.147Z,5.65
2023-04-16T02:12:12.013Z,5.91
2023-04-16T02:14:40.011Z,5.63
2023-04-16T02:17:07.999Z,5.79
2023-04-16T02:19:36.628Z,6.06
2023-04-16T02:22:05.170Z,6.50
2023-04-16T02:24:33.386Z,6.46
2023-04-16T02:27:04.097Z,6.07
2023-04-16T02:29:32.456Z,6.05
2023-04-16T02:32:01.361Z,6.31
2023-04-16T02:34:30.088Z,6.05
2023-04-16T02:36:58.624Z,6.20
2023-04-16T02:39:26.704Z,6.30
2023-04-16T02:41:55.158Z,6.13
2023-04-16T02:44:23.507Z,5.92
2023-04-16T02:46:51.435Z,5.81
2023-04-16T02:49:19.345Z,5.64
2023-04-16T02:51:49.205Z,5.61
2023-04-16T02:54:17.131Z,5.60
2023-04-16T02:56:45.111Z,6.24
2023-04-16T02:59:13.432Z,5.99
2023-04-16T03:01:41.734Z,5.44
2023-04-16T03:04:09.937Z,5.64
2023-04-16T03:06:38.216Z,5.65
2023-04-16T03:09:06.137Z,5.05
2023-04-16T03:11:34.034Z,4.93
2023-04-16T03:14:02.275Z,4.64
2023-04-16T03:16:30.144Z,4.95
2023-04-16T03:18:58.019Z,5.18
2023-04-16T03:21:27.832Z,4.88
2023-04-16T03:23:56.344Z,4.83
2023-04-16T03:26:24.374Z,4.72
2023-04-16T03:28:52.785Z,4.66
2023-04-16T03:31:21.847Z,4.83
2023-04-16T03:33:49.768Z,4.11
2023-04-16T03:36:18.194Z,3.99
2023-04-16T03:38:46.166Z,4.26
2023-04-16T03:41:14.779Z,4.03
2023-04-16T03:43:43.165Z,4.40
2023-04-16T03:46:11.560Z,4.23
2023-04-16T03:48:39.552Z,4.34
2023-04-16T03:51:08.451Z,4.14
2023-04-16T03:53:36.448Z,4.30
2023-04-16T03:56:04.683Z,4.45
2023-04-16T03:58:33.046Z,4.80
2023-04-16T04:01:00.951Z,4.82
2023-04-16T04:03:29.536Z,5.03
2023-04-16T04:05:57.818Z,5.02
2023-04-16T04:08:26.460Z,4.74
2023-04-16T04:10:54.975Z,4.98
2023-04-16T04:13:23.411Z,4.92
2023-04-16T04:15:51.659Z,4.78
2023-04-16T04:18:20.485Z,4.82
2023-04-16T04:20:48.440Z,5.47
2023-04-16T04:23:16.493Z,5.48
2023-04-16T04:25:45.631Z,5.12
2023-04-16T04:28:13.863Z,5.94
2023-04-16T04:30:42.343Z,6.31
2023-04-16T04:33:11.211Z,5.79
2023-04-16T04:35:39.160Z,6.05
2023-04-16T04:38:07.212Z,5.91
2023-04-16T04:40:35.859Z,6.08
2023-04-16T04:43:04.112Z,6.72
2023-04-16T04:45:32.297Z,7.70
2023-04-16T04:48:00.897Z,8.70
2023-04-16T04:50:28.860Z,8.99
2023-04-16T04:52:56.835Z,8.81
2023-04-16T04:55:25.160Z,8.43
2023-04-16T04:57:53.063Z,8.09
2023-04-16T05:00:21.441Z,7.78
2023-04-16T05:02:50.440Z,8.13
2023-04-16T05:05:18.526Z,7.79
2023-04-16T05:07:46.485Z,7.79
2023-04-16T05:10:14.913Z,7.51
2023-04-16T05:12:42.902Z,7.55
2023-04-16T05:15:11.191Z,7.62
2023-04-16T05:17:39.542Z,7.55
2023-04-16T05:20:09.283Z,7.65
2023-04-16T05:22:37.296Z,7.94
2023-04-16T05:25:05.929Z,7.85
2023-04-16T05:27:33.821Z,7.78
2023-04-16T05:30:01.814Z,7.89
2023-04-16T05:32:30.141Z,7.86
2023-04-16T05:34:58.110Z,8.04
2023-04-16T05:37:26.114Z,8.53
2023-04-16T05:39:54.449Z,8.67
2023-04-16T05:42:22.334Z,8.70
2023-04-16T05:44:51.284Z,8.47
2023-04-16T05:47:19.584Z,8.66
2023-04-16T05:49:47.492Z,8.84
2023-04-16T05:52:15.603Z,8.73
2023-04-16T05:54:43.813Z,8.77
2023-04-16T05:57:12.048Z,8.64
2023-04-16T05:59:39.996Z,8.71
2023-04-16T06:02:08.322Z,8.76
2023-04-16T06:04:37.479Z,8.90
2023-04-16T06:07:05.582Z,8.92
2023-04-16T06:09:33.504Z,9.36
2023-04-16T06:12:02.292Z,9.42
2023-04-16T06:14:30.193Z,9.22
2023-04-16T06:16:58.152Z,9.32
2023-04-16T06:19:26.390Z,9.39
2023-04-16T06:21:54.433Z,9.54
2023-04-16T06:24:22.515Z,9.79
2023-04-16T06:26:50.780Z,9.86
2023-04-16T06:29:18.691Z,10.14
2023-04-16T06:31:46.875Z,10.01
2023-04-16T06:34:15.144Z,10.04
2023-04-16T06:36:43.128Z,10.28
2023-04-16T06:39:11.369Z,10.47
2023-04-16T06:41:39.899Z,10.82
2023-04-16T06:44:07.959Z,10.77
2023-04-16T06:46:35.979Z,11.17
2023-04-16T06:49:04.369Z,11.29
2023-04-16T06:51:32.355Z,11.14
2023-04-16T06:54:00.391Z,10.87
2023-04-16T06:56:28.704Z,11.09
2023-04-16T06:58:58.010Z,11.48
2023-04-16T07:01:26.173Z,12.41
2023-04-16T07:03:55.007Z,12.46
2023-04-16T07:06:23.203Z,12.82
2023-04-16T07:08:51.072Z,12.56
2023-04-16T07:11:19.597Z,12.51
2023-04-16T07:13:47.548Z,12.24
2023-04-16T07:16:15.452Z,12.28
2023-04-16T07:18:43.729Z,12.33
2023-04-16T07:21:11.652Z,12.45
2023-04-16T07:23:39.598Z,12.53
2023-04-16T07:26:07.920Z,12.74
2023-04-16T07:28:36.018Z,13.11
2023-04-16T07:31:04.003Z,14.33
2023-04-16T07:33:32.302Z,14.98
2023-04-16T07:36:00.198Z,14.16
2023-04-16T07:38:28.093Z,14.83
2023-04-16T07:40:57.033Z,14.25
2023-04-16T07:43:24.943Z,15.04
2023-04-16T07:45:52.932Z,15.03
2023-04-16T07:48:22.261Z,15.42
2023-04-16T07:50:50.537Z,14.60
2023-04-16T07:53:18.436Z,14.50
2023-04-16T07:55:46.779Z,14.38
2023-04-16T07:58:14.707Z,14.88
2023-04-16T08:00:42.576Z,14.85
2023-04-16T08:03:11.064Z,14.51
2023-04-16T08:05:39.252Z,14.59
2023-04-16T08:08:07.181Z,14.09
2023-04-16T08:10:35.562Z,14.34
2023-04-16T08:13:03.534Z,15.33
2023-04-16T08:15:31.583Z,15.70
2023-04-16T08:18:00.047Z,15.52
2023-04-16T08:20:28.025Z,14.87
2023-04-16T08:22:56.086Z,13.83
2023-04-16T08:25:25.021Z,14.79
2023-04-16T08:27:52.979Z,15.58
2023-04-16T08:30:22.225Z,15.81
2023-04-16T08:32:50.680Z,15.02
2023-04-16T08:35:18.803Z,14.53
2023-04-16T08:37:46.756Z,14.72
2023-04-16T08:40:15.399Z,14.98
2023-04-16T08:42:49.646Z,14.55
2023-04-16T08:45:18.512Z,15.04
2023-04-16T08:47:48.295Z,14.53
2023-04-16T08:50:17.450Z,14.45
2023-04-16T08:52:53.058Z,14.84
2023-04-16T08:55:32.592Z,14.48
2023-04-16T08:58:01.825Z,14.46
2023-04-16T09:00:32.186Z,15.13
2023-04-16T09:03:00.795Z,15.01
2023-04-16T09:05:29.760Z,15.04
2023-04-16T09:07:57.746Z,15.33
2023-04-16T09:10:27.271Z,16.56
2023-04-16T09:12:56.417Z,16.38
2023-04-16T09:15:26.006Z,16.05
2023-04-16T09:17:54.660Z,16.55
2023-04-16T09:20:22.826Z,16.16
2023-04-16T09:22:50.779Z,15.78
2023-04-16T09:25:21.051Z,16.52
2023-04-16T09:27:52.386Z,16.52
2023-04-16T09:30:24.702Z,16.70
2023-04-16T09:32:53.829Z,15.67
2023-04-16T09:35:22.232Z,15.12
2023-04-16T09:37:57.587Z,16.00
2023-04-16T09:40:27.745Z,16.59
2023-04-16T09:43:01.023Z,16.51
2023-04-16T09:45:32.967Z,16.82
2023-04-16T09:48:06.315Z,18.07
2023-04-16T09:50:34.639Z,18.36
2023-04-16T09:53:03.866Z,17.66
2023-04-16T09:55:33.059Z,17.72
2023-04-16T09:58:02.064Z,17.17
2023-04-16T10:00:31.815Z,16.95
2023-04-16T10:03:07.375Z,17.02
2023-04-16T10:05:35.858Z,17.86
2023-04-16T10:08:11.905Z,18.40
2023-04-16T10:10:40.765Z,17.59
2023-04-16T10:13:09.357Z,17.11
2023-04-16T10:15:37.308Z,17.70
2023-04-16T10:18:05.718Z,17.97
2023-04-16T10:20:33.984Z,16.72
2023-04-16T10:23:02.453Z,16.37
2023-04-16T10:25:31.440Z,15.63
2023-04-16T10:28:00.573Z,16.86
2023-04-16T10:30:28.610Z,16.07
2023-04-16T10:33:00.257Z,15.97
2023-04-16T10:35:29.124Z,15.63
2023-04-16T10:37:58.147Z,16.03
2023-04-16T10:40:27.590Z,16.11
2023-04-16T10:42:59.849Z,17.24
2023-04-16T10:45:32.923Z,17.73
2023-04-16T10:48:06.389Z,17.18
2023-04-16T10:50:36.282Z,17.35
2023-04-16T10:53:23.968Z,17.42
2023-04-16T10:55:58.691Z,17.60
2023-04-16T10:58:28.252Z,17.55
2023-04-16T11:00:56.334Z,17.79
2023-04-16T11:03:24.338Z,18.25
2023-04-16T11:05:52.960Z,19.11
2023-04-16T11:08:21.379Z,18.79
2023-04-16T11:10:49.538Z,19.29
2023-04-16T11:13:18.905Z,19.00
2023-04-16T11:15:48.726Z,19.35
2023-04-16T11:18:20.094Z,18.29
2023-04-16T11:20:48.398Z,18.72
2023-04-16T11:23:16.442Z,18.16
2023-04-16T11:25:45.261Z,18.69
2023-04-16T11:28:13.600Z,18.57
2023-04-16T11:30:41.928Z,18.30
2023-04-16T11:33:11.697Z,19.97
2023-04-16T11:35:40.363Z,19.94
2023-04-16T11:38:08.310Z,20.37
2023-04-16T11:40:36.609Z,20.59
2023-04-16T11:43:15.919Z,19.97
2023-04-16T11:45:57.664Z,19.05
2023-04-16T11:48:26.233Z,19.48
2023-04-16T11:51:00.480Z,19.55
2023-04-16T11:53:28.829Z,19.52
2023-04-16T11:55:57.460Z,20.25
2023-04-16T11:58:25.480Z,20.23
2023-04-16T12:00:57.113Z,19.01
2023-04-16T12:03:47.142Z,18.58
2023-04-16T12:06:15.695Z,19.47
2023-04-16T12:08:43.993Z,20.04
2023-04-16T12:11:11.910Z,20.46
2023-04-16T12:13:40.405Z,19.89
2023-04-16T12:16:21.224Z,19.54
2023-04-16T12:19:03.233Z,19.16
2023-04-16T12:21:46.028Z,19.06
2023-04-16T12:24:16.386Z,18.71
2023-04-16T12:26:47.526Z,18.90
2023-04-16T12:29:30.444Z,18.41
2023-04-16T12:31:58.775Z,18.94
2023-04-16T12:34:28.949Z,19.31
2023-04-16T12:37:15.096Z,19.47
2023-04-16T12:39:43.561Z,18.76
2023-04-16T12:42:13.040Z,18.94
2023-04-16T12:44:41.396Z,18.28
2023-04-16T12:47:09.304Z,18.24
2023-04-16T12:49:37.630Z,18.35
2023-04-16T12:52:06.650Z,18.64
2023-04-16T12:54:34.693Z,17.29
2023-04-16T12:57:02.631Z,17.69
2023-04-16T12:59:30.912Z,17.81
2023-04-16T13:01:58.920Z,18.09
2023-04-16T13:04:27.103Z,17.78
2023-04-16T13:06:55.754Z,17.68
2023-04-16T13:09:23.776Z,18.17
2023-04-16T13:11:51.794Z,18.65
2023-04-16T13:14:21.168Z,18.73
2023-04-16T13:16:49.235Z,18.33
2023-04-16T13:19:19.382Z,18.97
2023-04-16T13:21:47.763Z,18.71
2023-04-16T13:24:15.986Z,19.53
2023-04-16T13:26:43.939Z,19.54
2023-04-16T13:29:12.497Z,18.81
2023-04-16T13:31:41.086Z,18.54
2023-04-16T13:34:08.980Z,18.52
2023-04-16T13:36:37.414Z,18.68
2023-04-16T13:39:10.985Z,19.65
2023-04-16T13:41:39.815Z,19.74
2023-04-16T13:44:07.898Z,19.02
2023-04-16T13:46:35.917Z,19.11
2023-04-16T13:49:04.208Z,19.93
2023-04-16T13:51:32.365Z,19.43
2023-04-16T13:54:00.276Z,18.56
2023-04-16T13:56:28.823Z,18.46
2023-04-16T13:58:56.741Z,18.99
2023-04-16T14:01:24.805Z,19.62
2023-04-16T14:03:53.205Z,19.38
2023-04-16T14:06:21.584Z,19.65
2023-04-16T14:08:49.686Z,18.71
2023-04-16T14:11:17.966Z,18.70
2023-04-16T14:13:46.037Z,19.56
2023-04-16T14:16:14.353Z,18.52
2023-04-16T14:18:42.631Z,18.05
2023-04-16T14:21:10.673Z,17.39
2023-04-16T14:23:38.580Z,17.81
2023-04-16T14:26:06.853Z,17.50
2023-04-16T14:28:35.940Z,18.09
2023-04-16T14:31:03.898Z,17.43
2023-04-16T14:33:32.641Z,17.15
2023-04-16T14:36:02.773Z,17.02
2023-04-16T14:38:31.536Z,17.05
2023-04-16T14:41:00.708Z,16.91
2023-04-16T14:43:28.898Z,16.91
2023-04-16T14:45:58.892Z,16.86
2023-04-16T14:48:27.364Z,17.18
2023-04-16T14:50:55.528Z,16.84
2023-04-16T14:53:24.531Z,16.99
2023-04-16T14:55:53.730Z,16.83
2023-04-16T14:58:22.126Z,17.38
2023-04-16T15:00:50.156Z,17.04
2023-04-16T15:03:18.634Z,16.89
2023-04-16T15:05:51.064Z,16.99
2023-04-16T15:08:19.355Z,17.26
2023-04-16T15:10:47.359Z,17.48
2023-04-16T15:13:15.792Z,17.07
2023-04-16T15:15:44.320Z,17.81
2023-04-16T15:18:12.330Z,17.93
2023-04-16T15:20:40.265Z,17.37
2023-04-16T15:23:08.644Z,17.80
2023-04-16T15:25:36.607Z,17.57
2023-04-16T15:28:04.835Z,17.15
2023-04-16T15:30:33.168Z,17.13
2023-04-16T15:33:01.243Z,17.02
2023-04-16T15:35:29.140Z,17.08
2023-04-16T15:37:57.506Z,17.08
2023-04-16T15:40:25.863Z,17.28
2023-04-16T15:42:56.180Z,17.35
2023-04-16T15:45:24.545Z,17.03
2023-04-16T15:47:52.463Z,17.19
2023-04-16T15:50:20.669Z,17.31
2023-04-16T15:52:49.203Z,16.83
2023-04-16T15:55:17.861Z,17.05
2023-04-16T15:57:45.800Z,16.98
2023-04-16T16:00:16.376Z,17.07
2023-04-16T16:02:47.244Z,16.64
2023-04-16T16:05:16.188Z,16.65
2023-04-16T16:07:44.950Z,17.03
2023-04-16T16:10:13.470Z,16.72
2023-04-16T16:12:41.708Z,16.61
2023-04-16T16:15:11.386Z,16.49
2023-04-16T16:17:39.575Z,16.56
2023-04-16T16:20:10.759Z,16.86
2023-04-16T16:22:39.509Z,17.13
2023-04-16T16:25:07.790Z,17.04
2023-04-16T16:27:36.621Z,16.52
2023-04-16T16:30:07.430Z,16.66
2023-04-16T16:32:35.552Z,16.61
2023-04-16T16:35:03.630Z,16.40
2023-04-16T16:37:31.975Z,16.46
2023-04-16T16:39:59.943Z,16.01
2023-04-16T16:42:27.916Z,16.16
2023-04-16T16:44:57.569Z,16.27
2023-04-16T16:47:25.669Z,16.25
2023-04-16T16:49:54.872Z,16.05
2023-04-16T16:52:24.386Z,16.28
2023-04-16T16:54:56.926Z,15.84
2023-04-16T16:57:25.859Z,15.64
2023-04-16T16:59:54.794Z,15.31
2023-04-16T17:02:23.312Z,15.45
2023-04-16T17:04:52.966Z,15.28
2023-04-16T17:07:21.169Z,15.12
2023-04-16T17:09:49.018Z,15.10
2023-04-16T17:12:17.315Z,15.40
2023-04-16T17:14:46.129Z,15.46
2023-04-16T17:17:14.000Z,15.16
2023-04-16T17:19:42.308Z,14.76
2023-04-16T17:22:10.943Z,14.64
2023-04-16T17:24:39.335Z,14.55
2023-04-16T17:27:07.627Z,14.19
2023-04-16T17:29:35.695Z,14.22
2023-04-16T17:32:04.118Z,14.34
2023-04-16T17:34:32.405Z,14.39
2023-04-16T17:37:00.332Z,14.20
2023-04-16T17:39:28.210Z,14.07
2023-04-16T17:41:58.713Z,13.78
2023-04-16T17:44:28.155Z,14.00
2023-04-16T17:46:57.105Z,13.39
2023-04-16T17:49:25.055Z,13.60
2023-04-16T17:51:54.095Z,14.12
2023-04-16T17:54:22.421Z,13.99
2023-04-16T17:56:50.321Z,13.62
2023-04-16T17:59:18.320Z,13.83
2023-04-16T18:01:46.728Z,13.46
2023-04-16T18:04:15.528Z,13.42
2023-04-16T18:06:44.132Z,13.74
2023-04-16T18:09:12.331Z,13.86
2023-04-16T18:11:40.509Z,14.04
2023-04-16T18:14:10.217Z,13.83
2023-04-16T18:16:38.265Z,13.78
2023-04-16T18:19:06.719Z,13.85
2023-04-16T18:21:35.694Z,13.96
2023-04-16T18:24:03.737Z,13.53
2023-04-16T18:26:35.674Z,13.58
2023-04-16T18:29:04.327Z,14.13
2023-04-16T18:31:32.687Z,13.90
2023-04-16T18:34:00.687Z,14.01
2023-04-16T18:36:28.773Z,13.84
2023-04-16T18:39:02.056Z,13.65
2023-04-16T18:41:31.512Z,13.32
2023-04-16T18:43:59.861Z,13.33
2023-04-16T18:46:27.931Z,13.13
2023-04-16T18:48:56.062Z,13.24
2023-04-16T18:51:24.404Z,13.19
2023-04-16T18:53:52.394Z,13.02
2023-04-16T18:56:20.417Z,13.35
2023-04-16T18:58:49.491Z,13.78
2023-04-16T19:01:18.103Z,13.98
2023-04-16T19:03:46.397Z,14.17
2023-04-16T19:06:14.881Z,13.94
2023-04-16T19:08:42.789Z,13.77
2023-04-16T19:11:10.829Z,13.78
2023-04-16T19:13:39.482Z,14.30
2023-04-16T19:16:11.639Z,13.99
2023-04-16T19:18:40.273Z,14.02
2023-04-16T19:21:10.220Z,13.69
2023-04-16T19:23:38.163Z,13.52
2023-04-16T19:26:06.512Z,13.20
2023-04-16T19:28:34.487Z,13.29
2023-04-16T19:31:02.605Z,13.73
2023-04-16T19:33:31.529Z,13.71
2023-04-16T19:36:00.503Z,13.57
2023-04-16T19:38:28.954Z,13.15
2023-04-16T19:40:57.240Z,13.29
2023-04-16T19:43:25.152Z,12.84
2023-04-16T19:45:54.499Z,13.22
2023-04-16T19:48:22.829Z,13.39
2023-04-16T19:50:50.962Z,13.27
2023-04-16T19:53:18.969Z,13.13
2023-04-16T19:55:47.249Z,13.17
2023-04-16T19:58:15.283Z,13.15
2023-04-16T20:00:43.709Z,12.61
2023-04-16T20:03:12.163Z,13.28
2023-04-16T20:05:40.109Z,13.65
2023-04-16T20:08:08.021Z,12.94
2023-04-16T20:10:36.288Z,13.20
2023-04-16T20:13:05.187Z,13.63
2023-04-16T20:15:33.075Z,13.19
2023-04-16T20:18:01.388Z,13.26
2023-04-16T20:20:29.426Z,13.50
2023-04-16T20:22:57.395Z,13.20
2023-04-16T20:25:26.420Z,13.20
2023-04-16T20:27:54.300Z,12.97
2023-04-16T20:30:22.883Z,13.30
2023-04-16T20:32:51.121Z,12.53
2023-04-16T20:35:19.167Z,13.00
2023-04-16T20:37:47.107Z,13.20
2023-04-16T20:40:16.639Z,13.25
2023-04-16T20:42:46.543Z,13.08
2023-04-16T20:45:14.552Z,13.06
2023-04-16T20:47:43.698Z,13.23
2023-04-16T20:50:12.291Z,13.14
2023-04-16T20:52:40.355Z,13.14
2023-04-16T20:55:09.109Z,13.26
2023-04-16T20:57:37.052Z,12.86
2023-04-16T21:00:09.056Z,13.32
2023-04-16T21:02:37.575Z,13.02
2023-04-16T21:05:09.204Z,13.01
2023-04-16T21:07:37.507Z,12.97
2023-04-16T21:10:06.019Z,13.09
2023-04-16T21:12:33.958Z,12.90
2023-04-16T21:15:02.577Z,12.77
2023-04-16T21:17:30.753Z,13.07
2023-04-16T21:19:58.756Z,12.94
2023-04-16T21:22:27.023Z,12.85
2023-04-16T21:24:55.050Z,13.09
2023-04-16T21:27:22.948Z,13.00
2023-04-16T21:29:52.063Z,13.06
2023-04-16T21:32:20.077Z,13.18
2023-04-16T21:34:48.074Z,13.20
2023-04-16T21:37:16.324Z,12.71
2023-04-16T21:39:44.307Z,12.56
2023-04-16T21:42:12.330Z,12.78
2023-04-16T21:44:40.731Z,12.98
2023-04-16T21:47:08.714Z,13.38
2023-04-16T21:49:36.620Z,12.68
2023-04-16T21:52:05.170Z,13.46
2023-04-16T21:54:33.222Z,13.12
2023-04-16T21:57:01.984Z,13.04
2023-04-16T21:59:30.294Z,12.82
2023-04-16T22:01:58.340Z,12.83
2023-04-16T22:04:37.192Z,13.47
2023-04-16T22:07:09.116Z,12.99
2023-04-16T22:09:38.093Z,12.61
2023-04-16T22:12:12.232Z,12.92
2023-04-16T22:14:46.153Z,12.63
2023-04-16T22:17:24.045Z,12.99
2023-04-16T22:19:53.607Z,12.91
2023-04-16T22:22:22.036Z,12.40
2023-04-16T22:24:49.998Z,12.42
2023-04-16T22:27:18.883Z,12.70
2023-04-16T22:29:46.833Z,12.45
2023-04-16T22:32:14.773Z,12.41
2023-04-16T22:34:43.063Z,12.83
2023-04-16T22:37:11.037Z,12.32
2023-04-16T22:39:38.939Z,12.44
2023-04-16T22:42:07.556Z,12.60
2023-04-16T22:44:36.979Z,13.07
2023-04-16T22:47:04.961Z,12.39
2023-04-16T22:49:33.377Z,12.78
2023-04-16T22:52:01.470Z,12.81
2023-04-16T22:54:33.031Z,12.66
2023-04-16T22:57:01.453Z,13.13
2023-04-16T22:59:29.325Z,12.94
2023-04-16T23:01:57.505Z,12.47
2023-04-16T23:04:26.005Z,12.64
2023-04-16T23:06:53.986Z,12.61
2023-04-16T23:09:22.725Z,12.57
2023-04-16T23:11:51.109Z,12.17
2023-04-16T23:14:19.697Z,12.40
2023-04-16T23:16:47.618Z,12.24
2023-04-16T23:19:15.994Z,12.17
2023-04-16T23:21:43.989Z,12.47
2023-04-16T23:24:11.969Z,12.26
2023-04-16T23:26:40.431Z,12.26
2023-04-16T23:29:08.386Z,11.79
2023-04-16T23:31:36.594Z,12.16
2023-04-16T23:34:04.927Z,12.48
2023-04-16T23:36:32.917Z,12.11
2023-04-16T23:39:00.987Z,12.00
2023-04-16T23:41:29.210Z,12.19
2023-04-16T23:43:57.347Z,12.11
2023-04-16T23:46:25.490Z,12.33
2023-04-16T23:48:55.450Z,12.18
2023-04-16T23:51:23.437Z,12.39
2023-04-16T23:53:51.330Z,12.09
2023-04-16T23:56:19.618Z,11.81
2023-04-16T23:58:47.620Z,12.28
